sensor_id;sensor_type;location;lat;lon;timestamp;P1;durP1;ratioP1;P2;durP2;ratioP2
13122;SDS011;6627;50.920;12.050;2022-08-21T00:01:22;27.90;;;24.37;;
13122;SDS011;6627;50.920;12.050;2022-08-21T00:03:53;30.67;;;25.40;;
13122;SDS011;6627;50.920;12.050;2022-08-21T00:06:22;30.23;;;25.30;;
13122;SDS011;6627;50.920;12.050;2022-08-21T00:08:50;28.67;;;25.37;;
13122;SDS011;6627;50.920;12.050;2022-08-21T00:11:17;32.70;;;25.43;;
13122;SDS011;6627;50.920;12.050;2022-08-21T00:13:46;27.83;;;24.47;;
13122;SDS011;6627;50.920;12.050;2022-08-21T00:16:14;28.57;;;25.43;;
13122;SDS011;6627;50.920;12.050;2022-08-21T00:18:41;36.47;;;27.93;;
13122;SDS011;6627;50.920;12.050;2022-08-21T00:21:08;35.53;;;27.37;;
13122;SDS011;6627;50.920;12.050;2022-08-21T00:23:37;34.43;;;27.63;;
13122;SDS011;6627;50.920;12.050;2022-08-21T00:26:06;35.03;;;26.80;;
13122;SDS011;6627;50.920;12.050;2022-08-21T00:28:34;36.10;;;28.10;;
13122;SDS011;6627;50.920;12.050;2022-08-21T00:31:02;28.83;;;25.63;;
13122;SDS011;6627;50.920;12.050;2022-08-21T00:33:30;33.93;;;27.47;;
13122;SDS011;6627;50.920;12.050;2022-08-21T00:35:57;37.50;;;28.37;;
13122;SDS011;6627;50.920;12.050;2022-08-21T00:38:25;39.07;;;28.67;;
13122;SDS011;6627;50.920;12.050;2022-08-21T00:40:53;34.33;;;27.40;;
13122;SDS011;6627;50.920;12.050;2022-08-21T00:43:29;36.53;;;27.73;;
13122;SDS011;6627;50.920;12.050;2022-08-21T00:46:00;37.33;;;29.30;;
13122;SDS011;6627;50.920;12.050;2022-08-21T00:48:31;37.00;;;28.90;;
13122;SDS011;6627;50.920;12.050;2022-08-21T00:51:00;35.03;;;26.83;;
13122;SDS011;6627;50.920;12.050;2022-08-21T00:53:34;40.10;;;30.10;;
13122;SDS011;6627;50.920;12.050;2022-08-21T00:56:05;34.70;;;27.93;;
13122;SDS011;6627;50.920;12.050;2022-08-21T00:58:36;39.63;;;29.23;;
13122;SDS011;6627;50.920;12.050;2022-08-21T01:01:07;42.47;;;32.57;;
13122;SDS011;6627;50.920;12.050;2022-08-21T01:03:35;45.17;;;32.27;;
13122;SDS011;6627;50.920;12.050;2022-08-21T01:06:04;41.30;;;31.07;;
13122;SDS011;6627;50.920;12.050;2022-08-21T01:08:32;38.47;;;30.73;;
13122;SDS011;6627;50.920;12.050;2022-08-21T01:11:00;42.73;;;30.93;;
13122;SDS011;6627;50.920;12.050;2022-08-21T01:13:30;38.30;;;30.80;;
13122;SDS011;6627;50.920;12.050;2022-08-21T01:16:03;36.40;;;29.93;;
13122;SDS011;6627;50.920;12.050;2022-08-21T01:18:36;42.13;;;28.90;;
13122;SDS011;6627;50.920;12.050;2022-08-21T01:21:07;35.70;;;28.97;;
13122;SDS011;6627;50.920;12.050;2022-08-21T01:23:37;43.37;;;29.20;;
13122;SDS011;6627;50.920;12.050;2022-08-21T01:26:09;37.63;;;29.67;;
13122;SDS011;6627;50.920;12.050;2022-08-21T01:28:38;35.60;;;28.17;;
13122;SDS011;6627;50.920;12.050;2022-08-21T01:31:25;38.10;;;29.10;;
13122;SDS011;6627;50.920;12.050;2022-08-21T01:33:55;38.43;;;28.83;;
13122;SDS011;6627;50.920;12.050;2022-08-21T01:36:24;42.03;;;30.73;;
13122;SDS011;6627;50.920;12.050;2022-08-21T01:38:53;38.20;;;29.80;;
13122;SDS011;6627;50.920;12.050;2022-08-21T01:41:20;47.67;;;30.57;;
13122;SDS011;6627;50.920;12.050;2022-08-21T01:43:47;41.27;;;30.37;;
13122;SDS011;6627;50.920;12.050;2022-08-21T01:46:15;40.50;;;30.53;;
13122;SDS011;6627;50.920;12.050;2022-08-21T01:48:43;37.13;;;27.87;;
13122;SDS011;6627;50.920;12.050;2022-08-21T01:51:10;34.17;;;28.43;;
13122;SDS011;6627;50.920;12.050;2022-08-21T01:53:39;40.87;;;28.83;;
13122;SDS011;6627;50.920;12.050;2022-08-21T01:56:08;39.80;;;28.37;;
13122;SDS011;6627;50.920;12.050;2022-08-21T01:58:39;44.73;;;27.43;;
13122;SDS011;6627;50.920;12.050;2022-08-21T02:01:06;38.80;;;28.63;;
13122;SDS011;6627;50.920;12.050;2022-08-21T02:03:34;36.43;;;28.53;;
13122;SDS011;6627;50.920;12.050;2022-08-21T02:06:02;41.27;;;29.20;;
13122;SDS011;6627;50.920;12.050;2022-08-21T02:08:31;41.73;;;28.63;;
13122;SDS011;6627;50.920;12.050;2022-08-21T02:11:00;41.83;;;29.47;;
13122;SDS011;6627;50.920;12.050;2022-08-21T02:13:27;40.90;;;29.93;;
13122;SDS011;6627;50.920;12.050;2022-08-21T02:15:55;44.20;;;29.20;;
13122;SDS011;6627;50.920;12.050;2022-08-21T02:18:22;47.90;;;29.97;;
13122;SDS011;6627;50.920;12.050;2022-08-21T02:20:49;50.40;;;30.73;;
13122;SDS011;6627;50.920;12.050;2022-08-21T02:23:17;56.60;;;31.50;;
13122;SDS011;6627;50.920;12.050;2022-08-21T02:25:44;54.23;;;32.20;;
13122;SDS011;6627;50.920;12.050;2022-08-21T02:28:14;58.80;;;33.33;;
13122;SDS011;6627;50.920;12.050;2022-08-21T02:30:42;49.43;;;32.70;;
13122;SDS011;6627;50.920;12.050;2022-08-21T02:33:13;47.03;;;31.13;;
13122;SDS011;6627;50.920;12.050;2022-08-21T02:35:41;56.23;;;34.80;;
13122;SDS011;6627;50.920;12.050;2022-08-21T02:38:12;57.43;;;35.80;;
13122;SDS011;6627;50.920;12.050;2022-08-21T02:40:44;61.10;;;34.00;;
13122;SDS011;6627;50.920;12.050;2022-08-21T02:43:15;54.20;;;34.63;;
13122;SDS011;6627;50.920;12.050;2022-08-21T02:45:44;67.97;;;36.40;;
13122;SDS011;6627;50.920;12.050;2022-08-21T02:48:13;62.70;;;36.80;;
13122;SDS011;6627;50.920;12.050;2022-08-21T02:50:45;66.63;;;37.30;;
13122;SDS011;6627;50.920;12.050;2022-08-21T02:53:15;62.33;;;36.20;;
13122;SDS011;6627;50.920;12.050;2022-08-21T02:55:44;70.43;;;36.57;;
13122;SDS011;6627;50.920;12.050;2022-08-21T02:58:14;77.47;;;39.33;;
13122;SDS011;6627;50.920;12.050;2022-08-21T03:00:45;76.50;;;39.03;;
13122;SDS011;6627;50.920;12.050;2022-08-21T03:03:13;64.53;;;38.00;;
13122;SDS011;6627;50.920;12.050;2022-08-21T03:05:41;74.37;;;39.53;;
13122;SDS011;6627;50.920;12.050;2022-08-21T03:08:10;54.40;;;37.30;;
13122;SDS011;6627;50.920;12.050;2022-08-21T03:10:40;62.03;;;39.47;;
13122;SDS011;6627;50.920;12.050;2022-08-21T03:13:12;58.43;;;39.57;;
13122;SDS011;6627;50.920;12.050;2022-08-21T03:15:42;55.50;;;36.43;;
13122;SDS011;6627;50.920;12.050;2022-08-21T03:18:10;55.00;;;35.57;;
13122;SDS011;6627;50.920;12.050;2022-08-21T03:20:39;52.47;;;34.73;;
13122;SDS011;6627;50.920;12.050;2022-08-21T03:23:08;59.23;;;35.77;;
13122;SDS011;6627;50.920;12.050;2022-08-21T03:25:36;53.27;;;32.97;;
13122;SDS011;6627;50.920;12.050;2022-08-21T03:28:04;56.77;;;33.47;;
13122;SDS011;6627;50.920;12.050;2022-08-21T03:30:34;56.23;;;33.53;;
13122;SDS011;6627;50.920;12.050;2022-08-21T03:33:03;47.13;;;32.50;;
13122;SDS011;6627;50.920;12.050;2022-08-21T03:35:30;55.43;;;33.93;;
13122;SDS011;6627;50.920;12.050;2022-08-21T03:37:57;49.03;;;32.90;;
13122;SDS011;6627;50.920;12.050;2022-08-21T03:40:25;53.37;;;33.37;;
13122;SDS011;6627;50.920;12.050;2022-08-21T03:42:52;60.63;;;34.13;;
13122;SDS011;6627;50.920;12.050;2022-08-21T03:45:20;55.10;;;34.30;;
13122;SDS011;6627;50.920;12.050;2022-08-21T03:47:52;63.23;;;34.13;;
13122;SDS011;6627;50.920;12.050;2022-08-21T03:50:24;58.23;;;33.73;;
13122;SDS011;6627;50.920;12.050;2022-08-21T03:52:54;66.60;;;35.47;;
13122;SDS011;6627;50.920;12.050;2022-08-21T03:55:21;57.30;;;33.53;;
13122;SDS011;6627;50.920;12.050;2022-08-21T03:57:51;63.07;;;35.03;;
13122;SDS011;6627;50.920;12.050;2022-08-21T04:00:19;68.03;;;36.80;;
13122;SDS011;6627;50.920;12.050;2022-08-21T04:02:47;60.60;;;35.13;;
13122;SDS011;6627;50.920;12.050;2022-08-21T04:05:16;66.80;;;36.57;;
13122;SDS011;6627;50.920;12.050;2022-08-21T04:07:54;67.60;;;36.70;;
13122;SDS011;6627;50.920;12.050;2022-08-21T04:10:23;76.23;;;37.47;;
13122;SDS011;6627;50.920;12.050;2022-08-21T04:12:53;53.47;;;34.77;;
13122;SDS011;6627;50.920;12.050;2022-08-21T04:15:21;57.57;;;33.73;;
13122;SDS011;6627;50.920;12.050;2022-08-21T04:17:51;70.00;;;37.23;;
13122;SDS011;6627;50.920;12.050;2022-08-21T04:20:20;76.87;;;35.80;;
13122;SDS011;6627;50.920;12.050;2022-08-21T04:22:49;74.07;;;36.70;;
13122;SDS011;6627;50.920;12.050;2022-08-21T04:25:19;82.73;;;36.97;;
13122;SDS011;6627;50.920;12.050;2022-08-21T04:27:49;76.57;;;37.33;;
13122;SDS011;6627;50.920;12.050;2022-08-21T04:30:17;69.07;;;36.77;;
13122;SDS011;6627;50.920;12.050;2022-08-21T04:32:45;72.37;;;36.97;;
13122;SDS011;6627;50.920;12.050;2022-08-21T04:35:16;87.97;;;39.07;;
13122;SDS011;6627;50.920;12.050;2022-08-21T04:37:47;68.83;;;36.40;;
13122;SDS011;6627;50.920;12.050;2022-08-21T04:40:16;70.70;;;35.47;;
13122;SDS011;6627;50.920;12.050;2022-08-21T04:42:47;71.10;;;36.87;;
13122;SDS011;6627;50.920;12.050;2022-08-21T04:45:21;56.57;;;34.63;;
13122;SDS011;6627;50.920;12.050;2022-08-21T04:47:51;60.63;;;36.07;;
13122;SDS011;6627;50.920;12.050;2022-08-21T04:50:21;53.43;;;34.03;;
13122;SDS011;6627;50.920;12.050;2022-08-21T04:52:54;63.13;;;35.30;;
13122;SDS011;6627;50.920;12.050;2022-08-21T04:55:23;52.33;;;33.23;;
13122;SDS011;6627;50.920;12.050;2022-08-21T04:57:53;47.73;;;32.20;;
13122;SDS011;6627;50.920;12.050;2022-08-21T05:00:22;62.53;;;33.23;;
13122;SDS011;6627;50.920;12.050;2022-08-21T05:02:51;46.30;;;30.27;;
13122;SDS011;6627;50.920;12.050;2022-08-21T05:05:24;50.27;;;32.07;;
13122;SDS011;6627;50.920;12.050;2022-08-21T05:07:54;52.47;;;32.50;;
13122;SDS011;6627;50.920;12.050;2022-08-21T05:10:26;52.03;;;31.77;;
13122;SDS011;6627;50.920;12.050;2022-08-21T05:12:54;53.00;;;33.23;;
13122;SDS011;6627;50.920;12.050;2022-08-21T05:15:22;51.27;;;31.87;;
13122;SDS011;6627;50.920;12.050;2022-08-21T05:17:49;52.67;;;33.13;;
13122;SDS011;6627;50.920;12.050;2022-08-21T05:20:16;55.47;;;32.30;;
13122;SDS011;6627;50.920;12.050;2022-08-21T05:22:45;48.60;;;32.50;;
13122;SDS011;6627;50.920;12.050;2022-08-21T05:25:12;51.03;;;33.83;;
13122;SDS011;6627;50.920;12.050;2022-08-21T05:27:41;45.23;;;31.60;;
13122;SDS011;6627;50.920;12.050;2022-08-21T05:30:09;37.33;;;29.13;;
13122;SDS011;6627;50.920;12.050;2022-08-21T05:32:37;30.13;;;26.80;;
13122;SDS011;6627;50.920;12.050;2022-08-21T05:35:04;30.97;;;25.73;;
13122;SDS011;6627;50.920;12.050;2022-08-21T05:37:34;31.20;;;25.80;;
13122;SDS011;6627;50.920;12.050;2022-08-21T05:40:02;27.13;;;24.20;;
13122;SDS011;6627;50.920;12.050;2022-08-21T05:42:31;28.47;;;23.87;;
13122;SDS011;6627;50.920;12.050;2022-08-21T05:44:59;26.43;;;23.57;;
13122;SDS011;6627;50.920;12.050;2022-08-21T05:47:26;27.17;;;23.70;;
13122;SDS011;6627;50.920;12.050;2022-08-21T05:49:54;34.37;;;23.87;;
13122;SDS011;6627;50.920;12.050;2022-08-21T05:52:21;28.57;;;23.97;;
13122;SDS011;6627;50.920;12.050;2022-08-21T05:54:48;26.03;;;22.80;;
13122;SDS011;6627;50.920;12.050;2022-08-21T05:57:15;26.37;;;23.20;;
13122;SDS011;6627;50.920;12.050;2022-08-21T05:59:43;27.30;;;23.50;;
13122;SDS011;6627;50.920;12.050;2022-08-21T06:02:11;30.07;;;25.73;;
13122;SDS011;6627;50.920;12.050;2022-08-21T06:04:39;33.20;;;25.37;;
13122;SDS011;6627;50.920;12.050;2022-08-21T06:07:07;31.80;;;26.33;;
13122;SDS011;6627;50.920;12.050;2022-08-21T06:09:35;29.00;;;24.73;;
13122;SDS011;6627;50.920;12.050;2022-08-21T06:12:03;30.60;;;24.90;;
13122;SDS011;6627;50.920;12.050;2022-08-21T06:14:32;27.83;;;24.03;;
13122;SDS011;6627;50.920;12.050;2022-08-21T06:17:01;29.50;;;23.93;;
13122;SDS011;6627;50.920;12.050;2022-08-21T06:19:31;26.07;;;23.27;;
13122;SDS011;6627;50.920;12.050;2022-08-21T06:21:58;30.80;;;23.70;;
13122;SDS011;6627;50.920;12.050;2022-08-21T06:24:26;28.43;;;22.47;;
13122;SDS011;6627;50.920;12.050;2022-08-21T06:26:53;30.30;;;22.53;;
13122;SDS011;6627;50.920;12.050;2022-08-21T06:29:21;27.53;;;21.57;;
13122;SDS011;6627;50.920;12.050;2022-08-21T06:31:50;27.10;;;21.37;;
13122;SDS011;6627;50.920;12.050;2022-08-21T06:34:18;28.80;;;21.90;;
13122;SDS011;6627;50.920;12.050;2022-08-21T06:36:46;28.73;;;21.93;;
13122;SDS011;6627;50.920;12.050;2022-08-21T06:39:14;25.20;;;20.00;;
13122;SDS011;6627;50.920;12.050;2022-08-21T06:41:41;24.93;;;19.80;;
13122;SDS011;6627;50.920;12.050;2022-08-21T06:44:08;22.10;;;19.73;;
13122;SDS011;6627;50.920;12.050;2022-08-21T06:46:36;22.23;;;19.83;;
13122;SDS011;6627;50.920;12.050;2022-08-21T06:49:03;21.33;;;19.10;;
13122;SDS011;6627;50.920;12.050;2022-08-21T06:51:31;21.40;;;18.70;;
13122;SDS011;6627;50.920;12.050;2022-08-21T06:54:00;21.17;;;18.70;;
13122;SDS011;6627;50.920;12.050;2022-08-21T06:56:28;22.40;;;18.20;;
13122;SDS011;6627;50.920;12.050;2022-08-21T06:58:55;18.40;;;16.50;;
13122;SDS011;6627;50.920;12.050;2022-08-21T07:01:23;20.27;;;17.20;;
13122;SDS011;6627;50.920;12.050;2022-08-21T07:03:52;17.90;;;15.97;;
13122;SDS011;6627;50.920;12.050;2022-08-21T07:06:20;18.63;;;15.10;;
13122;SDS011;6627;50.920;12.050;2022-08-21T07:08:47;18.80;;;15.67;;
13122;SDS011;6627;50.920;12.050;2022-08-21T07:11:17;16.63;;;14.80;;
13122;SDS011;6627;50.920;12.050;2022-08-21T07:13:46;15.90;;;14.30;;
13122;SDS011;6627;50.920;12.050;2022-08-21T07:16:16;16.73;;;14.93;;
13122;SDS011;6627;50.920;12.050;2022-08-21T07:18:43;15.10;;;13.47;;
13122;SDS011;6627;50.920;12.050;2022-08-21T07:21:11;16.53;;;13.13;;
13122;SDS011;6627;50.920;12.050;2022-08-21T07:23:39;15.10;;;12.63;;
13122;SDS011;6627;50.920;12.050;2022-08-21T07:26:11;15.00;;;12.20;;
13122;SDS011;6627;50.920;12.050;2022-08-21T07:28:40;13.23;;;11.50;;
13122;SDS011;6627;50.920;12.050;2022-08-21T07:31:08;13.67;;;10.73;;
13122;SDS011;6627;50.920;12.050;2022-08-21T07:33:40;14.77;;;11.63;;
13122;SDS011;6627;50.920;12.050;2022-08-21T07:36:08;13.37;;;10.90;;
13122;SDS011;6627;50.920;12.050;2022-08-21T07:38:35;12.97;;;10.30;;
13122;SDS011;6627;50.920;12.050;2022-08-21T07:41:05;12.83;;;9.50;;
13122;SDS011;6627;50.920;12.050;2022-08-21T07:43:43;12.73;;;9.43;;
13122;SDS011;6627;50.920;12.050;2022-08-21T07:46:12;9.43;;;8.33;;
13122;SDS011;6627;50.920;12.050;2022-08-21T07:49:00;11.63;;;8.80;;
13122;SDS011;6627;50.920;12.050;2022-08-21T07:51:47;11.23;;;8.30;;
13122;SDS011;6627;50.920;12.050;2022-08-21T07:54:35;13.00;;;9.00;;
13122;SDS011;6627;50.920;12.050;2022-08-21T07:57:22;13.03;;;8.80;;
13122;SDS011;6627;50.920;12.050;2022-08-21T08:00:11;10.10;;;8.53;;
13122;SDS011;6627;50.920;12.050;2022-08-21T08:03:01;12.03;;;8.53;;
13122;SDS011;6627;50.920;12.050;2022-08-21T08:05:48;12.40;;;7.80;;
13122;SDS011;6627;50.920;12.050;2022-08-21T08:08:35;10.13;;;7.63;;
13122;SDS011;6627;50.920;12.050;2022-08-21T08:11:22;10.43;;;7.13;;
13122;SDS011;6627;50.920;12.050;2022-08-21T08:13:50;9.30;;;7.37;;
13122;SDS011;6627;50.920;12.050;2022-08-21T08:16:19;12.33;;;8.20;;
13122;SDS011;6627;50.920;12.050;2022-08-21T08:18:46;13.47;;;7.40;;
13122;SDS011;6627;50.920;12.050;2022-08-21T08:21:14;8.67;;;6.40;;
13122;SDS011;6627;50.920;12.050;2022-08-21T08:23:42;9.00;;;6.43;;
13122;SDS011;6627;50.920;12.050;2022-08-21T08:26:10;8.43;;;6.83;;
13122;SDS011;6627;50.920;12.050;2022-08-21T08:28:37;10.97;;;6.50;;
13122;SDS011;6627;50.920;12.050;2022-08-21T08:31:04;10.67;;;6.40;;
13122;SDS011;6627;50.920;12.050;2022-08-21T08:33:33;8.57;;;5.60;;
13122;SDS011;6627;50.920;12.050;2022-08-21T08:36:00;9.27;;;4.70;;
13122;SDS011;6627;50.920;12.050;2022-08-21T08:38:28;9.43;;;4.40;;
13122;SDS011;6627;50.920;12.050;2022-08-21T08:40:55;5.83;;;4.07;;
13122;SDS011;6627;50.920;12.050;2022-08-21T08:43:28;6.20;;;3.40;;
13122;SDS011;6627;50.920;12.050;2022-08-21T08:45:59;6.57;;;4.27;;
13122;SDS011;6627;50.920;12.050;2022-08-21T08:48:39;6.73;;;4.50;;
13122;SDS011;6627;50.920;12.050;2022-08-21T08:51:17;6.53;;;4.03;;
13122;SDS011;6627;50.920;12.050;2022-08-21T08:53:52;7.97;;;3.73;;
13122;SDS011;6627;50.920;12.050;2022-08-21T08:56:29;8.23;;;3.00;;
13122;SDS011;6627;50.920;12.050;2022-08-21T08:59:00;7.10;;;2.90;;
13122;SDS011;6627;50.920;12.050;2022-08-21T09:01:35;8.03;;;3.70;;
13122;SDS011;6627;50.920;12.050;2022-08-21T09:04:03;9.03;;;4.53;;
13122;SDS011;6627;50.920;12.050;2022-08-21T09:06:35;8.90;;;4.33;;
13122;SDS011;6627;50.920;12.050;2022-08-21T09:09:25;6.50;;;4.10;;
13122;SDS011;6627;50.920;12.050;2022-08-21T09:12:06;5.33;;;3.77;;
13122;SDS011;6627;50.920;12.050;2022-08-21T09:14:47;5.87;;;3.97;;
13122;SDS011;6627;50.920;12.050;2022-08-21T09:17:29;5.57;;;3.60;;
13122;SDS011;6627;50.920;12.050;2022-08-21T09:20:27;8.00;;;4.20;;
13122;SDS011;6627;50.920;12.050;2022-08-21T09:23:05;6.40;;;3.97;;
13122;SDS011;6627;50.920;12.050;2022-08-21T09:25:52;8.10;;;3.93;;
13122;SDS011;6627;50.920;12.050;2022-08-21T09:28:33;8.80;;;3.63;;
13122;SDS011;6627;50.920;12.050;2022-08-21T09:31:02;7.67;;;3.80;;
13122;SDS011;6627;50.920;12.050;2022-08-21T09:33:34;7.10;;;3.50;;
13122;SDS011;6627;50.920;12.050;2022-08-21T09:36:03;7.57;;;3.57;;
13122;SDS011;6627;50.920;12.050;2022-08-21T09:38:31;8.30;;;3.90;;
13122;SDS011;6627;50.920;12.050;2022-08-21T09:41:03;6.27;;;3.40;;
13122;SDS011;6627;50.920;12.050;2022-08-21T09:43:34;7.90;;;4.03;;
13122;SDS011;6627;50.920;12.050;2022-08-21T09:46:05;6.90;;;3.70;;
13122;SDS011;6627;50.920;12.050;2022-08-21T09:48:40;8.43;;;3.70;;
13122;SDS011;6627;50.920;12.050;2022-08-21T09:51:14;6.80;;;3.47;;
13122;SDS011;6627;50.920;12.050;2022-08-21T09:53:44;9.00;;;3.73;;
13122;SDS011;6627;50.920;12.050;2022-08-21T09:56:27;11.73;;;3.97;;
13122;SDS011;6627;50.920;12.050;2022-08-21T09:59:17;7.93;;;3.47;;
13122;SDS011;6627;50.920;12.050;2022-08-21T10:01:52;8.17;;;3.23;;
13122;SDS011;6627;50.920;12.050;2022-08-21T10:04:21;6.60;;;2.60;;
13122;SDS011;6627;50.920;12.050;2022-08-21T10:07:05;9.07;;;3.57;;
13122;SDS011;6627;50.920;12.050;2022-08-21T10:09:34;7.63;;;3.43;;
13122;SDS011;6627;50.920;12.050;2022-08-21T10:12:07;7.87;;;3.10;;
13122;SDS011;6627;50.920;12.050;2022-08-21T10:14:45;5.80;;;2.87;;
13122;SDS011;6627;50.920;12.050;2022-08-21T10:17:23;5.33;;;3.40;;
13122;SDS011;6627;50.920;12.050;2022-08-21T10:20:00;7.33;;;2.97;;
13122;SDS011;6627;50.920;12.050;2022-08-21T10:22:37;6.83;;;3.23;;
13122;SDS011;6627;50.920;12.050;2022-08-21T10:25:14;7.50;;;3.40;;
13122;SDS011;6627;50.920;12.050;2022-08-21T10:27:50;5.53;;;3.20;;
13122;SDS011;6627;50.920;12.050;2022-08-21T10:30:31;4.83;;;3.00;;
13122;SDS011;6627;50.920;12.050;2022-08-21T10:33:23;7.10;;;3.00;;
13122;SDS011;6627;50.920;12.050;2022-08-21T10:36:05;6.23;;;3.43;;
13122;SDS011;6627;50.920;12.050;2022-08-21T10:38:45;5.83;;;3.53;;
13122;SDS011;6627;50.920;12.050;2022-08-21T10:41:40;4.83;;;3.20;;
13122;SDS011;6627;50.920;12.050;2022-08-21T10:44:30;4.67;;;3.00;;
13122;SDS011;6627;50.920;12.050;2022-08-21T10:47:11;5.43;;;3.30;;
13122;SDS011;6627;50.920;12.050;2022-08-21T10:49:52;8.70;;;3.40;;
13122;SDS011;6627;50.920;12.050;2022-08-21T10:52:34;5.37;;;2.80;;
13122;SDS011;6627;50.920;12.050;2022-08-21T10:55:32;6.37;;;3.00;;
13122;SDS011;6627;50.920;12.050;2022-08-21T10:58:08;6.00;;;2.80;;
13122;SDS011;6627;50.920;12.050;2022-08-21T11:00:39;6.60;;;2.90;;
13122;SDS011;6627;50.920;12.050;2022-08-21T11:03:13;5.97;;;2.83;;
13122;SDS011;6627;50.920;12.050;2022-08-21T11:05:49;5.93;;;3.10;;
13122;SDS011;6627;50.920;12.050;2022-08-21T11:08:22;5.40;;;2.67;;
13122;SDS011;6627;50.920;12.050;2022-08-21T11:10:59;6.07;;;2.80;;
13122;SDS011;6627;50.920;12.050;2022-08-21T11:13:32;6.90;;;2.60;;
13122;SDS011;6627;50.920;12.050;2022-08-21T11:16:07;4.23;;;2.70;;
13122;SDS011;6627;50.920;12.050;2022-08-21T11:18:45;9.83;;;2.63;;
13122;SDS011;6627;50.920;12.050;2022-08-21T11:21:26;7.60;;;2.90;;
13122;SDS011;6627;50.920;12.050;2022-08-21T11:24:03;4.40;;;2.80;;
13122;SDS011;6627;50.920;12.050;2022-08-21T11:26:58;5.30;;;2.80;;
13122;SDS011;6627;50.920;12.050;2022-08-21T11:29:33;5.97;;;2.90;;
13122;SDS011;6627;50.920;12.050;2022-08-21T11:32:06;4.50;;;2.80;;
13122;SDS011;6627;50.920;12.050;2022-08-21T11:34:59;6.00;;;2.87;;
13122;SDS011;6627;50.920;12.050;2022-08-21T11:37:45;4.93;;;2.60;;
13122;SDS011;6627;50.920;12.050;2022-08-21T11:40:50;5.13;;;2.70;;
13122;SDS011;6627;50.920;12.050;2022-08-21T11:43:39;5.77;;;2.70;;
13122;SDS011;6627;50.920;12.050;2022-08-21T11:46:11;6.07;;;3.10;;
13122;SDS011;6627;50.920;12.050;2022-08-21T11:48:48;5.03;;;2.93;;
13122;SDS011;6627;50.920;12.050;2022-08-21T11:51:44;4.10;;;2.60;;
13122;SDS011;6627;50.920;12.050;2022-08-21T11:54:20;6.87;;;2.40;;
13122;SDS011;6627;50.920;12.050;2022-08-21T11:56:55;4.83;;;2.17;;
13122;SDS011;6627;50.920;12.050;2022-08-21T11:59:34;6.13;;;2.90;;
13122;SDS011;6627;50.920;12.050;2022-08-21T12:02:12;3.30;;;2.30;;
13122;SDS011;6627;50.920;12.050;2022-08-21T12:04:46;5.53;;;3.10;;
13122;SDS011;6627;50.920;12.050;2022-08-21T12:07:29;6.63;;;2.50;;
13122;SDS011;6627;50.920;12.050;2022-08-21T12:10:00;4.93;;;2.63;;
13122;SDS011;6627;50.920;12.050;2022-08-21T12:12:33;6.97;;;3.10;;
13122;SDS011;6627;50.920;12.050;2022-08-21T12:15:13;6.50;;;2.50;;
13122;SDS011;6627;50.920;12.050;2022-08-21T12:17:52;4.77;;;2.50;;
13122;SDS011;6627;50.920;12.050;2022-08-21T12:20:36;7.50;;;2.90;;
13122;SDS011;6627;50.920;12.050;2022-08-21T12:23:16;9.37;;;2.87;;
13122;SDS011;6627;50.920;12.050;2022-08-21T12:29:07;5.00;;;2.70;;
13122;SDS011;6627;50.920;12.050;2022-08-21T12:31:58;5.83;;;3.10;;
13122;SDS011;6627;50.920;12.050;2022-08-21T12:34:31;5.53;;;2.90;;
13122;SDS011;6627;50.920;12.050;2022-08-21T12:37:03;5.17;;;2.70;;
13122;SDS011;6627;50.920;12.050;2022-08-21T12:39:38;5.00;;;2.67;;
13122;SDS011;6627;50.920;12.050;2022-08-21T12:42:11;5.80;;;2.80;;
13122;SDS011;6627;50.920;12.050;2022-08-21T12:44:46;4.13;;;2.80;;
13122;SDS011;6627;50.920;12.050;2022-08-21T12:47:27;5.63;;;2.50;;
13122;SDS011;6627;50.920;12.050;2022-08-21T12:50:03;9.00;;;3.30;;
13122;SDS011;6627;50.920;12.050;2022-08-21T12:52:39;5.40;;;2.67;;
13122;SDS011;6627;50.920;12.050;2022-08-21T12:55:15;7.53;;;2.83;;
13122;SDS011;6627;50.920;12.050;2022-08-21T12:57:53;4.83;;;2.83;;
13122;SDS011;6627;50.920;12.050;2022-08-21T13:00:21;4.37;;;2.67;;
13122;SDS011;6627;50.920;12.050;2022-08-21T13:02:54;4.03;;;2.60;;
13122;SDS011;6627;50.920;12.050;2022-08-21T13:05:32;5.33;;;2.90;;
13122;SDS011;6627;50.920;12.050;2022-08-21T13:08:03;4.77;;;2.60;;
13122;SDS011;6627;50.920;12.050;2022-08-21T13:10:33;6.10;;;2.97;;
13122;SDS011;6627;50.920;12.050;2022-08-21T13:13:03;6.33;;;2.97;;
13122;SDS011;6627;50.920;12.050;2022-08-21T13:15:37;7.07;;;3.10;;
13122;SDS011;6627;50.920;12.050;2022-08-21T13:18:08;5.50;;;2.77;;
13122;SDS011;6627;50.920;12.050;2022-08-21T13:20:48;4.13;;;2.87;;
13122;SDS011;6627;50.920;12.050;2022-08-21T13:23:19;4.83;;;2.70;;
13122;SDS011;6627;50.920;12.050;2022-08-21T13:25:50;5.13;;;2.97;;
13122;SDS011;6627;50.920;12.050;2022-08-21T13:28:18;4.63;;;2.60;;
13122;SDS011;6627;50.920;12.050;2022-08-21T13:30:46;7.07;;;2.80;;
13122;SDS011;6627;50.920;12.050;2022-08-21T13:33:19;5.23;;;2.80;;
13122;SDS011;6627;50.920;12.050;2022-08-21T13:35:51;4.17;;;2.53;;
13122;SDS011;6627;50.920;12.050;2022-08-21T13:38:30;5.13;;;2.83;;
13122;SDS011;6627;50.920;12.050;2022-08-21T13:41:02;5.33;;;2.50;;
13122;SDS011;6627;50.920;12.050;2022-08-21T13:43:43;6.33;;;3.00;;
13122;SDS011;6627;50.920;12.050;2022-08-21T13:46:14;6.43;;;3.20;;
13122;SDS011;6627;50.920;12.050;2022-08-21T13:48:46;5.67;;;2.60;;
13122;SDS011;6627;50.920;12.050;2022-08-21T13:51:13;6.30;;;3.00;;
13122;SDS011;6627;50.920;12.050;2022-08-21T13:53:44;4.77;;;3.00;;
13122;SDS011;6627;50.920;12.050;2022-08-21T13:56:21;5.17;;;3.00;;
13122;SDS011;6627;50.920;12.050;2022-08-21T13:58:51;5.30;;;3.00;;
13122;SDS011;6627;50.920;12.050;2022-08-21T14:01:20;7.47;;;2.90;;
13122;SDS011;6627;50.920;12.050;2022-08-21T14:03:55;5.80;;;2.57;;
13122;SDS011;6627;50.920;12.050;2022-08-21T14:06:33;4.70;;;2.70;;
13122;SDS011;6627;50.920;12.050;2022-08-21T14:09:07;7.40;;;2.97;;
13122;SDS011;6627;50.920;12.050;2022-08-21T14:11:38;4.70;;;2.90;;
13122;SDS011;6627;50.920;12.050;2022-08-21T14:14:12;4.93;;;2.80;;
13122;SDS011;6627;50.920;12.050;2022-08-21T14:16:52;7.37;;;3.17;;
13122;SDS011;6627;50.920;12.050;2022-08-21T14:19:25;6.67;;;2.40;;
13122;SDS011;6627;50.920;12.050;2022-08-21T14:24:59;5.13;;;2.83;;
13122;SDS011;6627;50.920;12.050;2022-08-21T14:27:29;3.90;;;2.57;;
13122;SDS011;6627;50.920;12.050;2022-08-21T14:29:58;5.80;;;2.83;;
13122;SDS011;6627;50.920;12.050;2022-08-21T14:32:30;4.33;;;2.50;;
13122;SDS011;6627;50.920;12.050;2022-08-21T14:35:06;6.40;;;3.07;;
13122;SDS011;6627;50.920;12.050;2022-08-21T14:37:34;5.57;;;2.97;;
13122;SDS011;6627;50.920;12.050;2022-08-21T14:40:02;6.93;;;2.73;;
13122;SDS011;6627;50.920;12.050;2022-08-21T14:42:31;7.10;;;2.50;;
13122;SDS011;6627;50.920;12.050;2022-08-21T14:45:06;5.60;;;3.07;;
13122;SDS011;6627;50.920;12.050;2022-08-21T14:47:40;6.07;;;2.70;;
13122;SDS011;6627;50.920;12.050;2022-08-21T14:50:11;5.80;;;2.60;;
13122;SDS011;6627;50.920;12.050;2022-08-21T14:52:40;4.13;;;2.57;;
13122;SDS011;6627;50.920;12.050;2022-08-21T14:55:11;5.47;;;2.90;;
13122;SDS011;6627;50.920;12.050;2022-08-21T14:57:41;8.03;;;2.63;;
13122;SDS011;6627;50.920;12.050;2022-08-21T15:00:12;4.80;;;2.70;;
13122;SDS011;6627;50.920;12.050;2022-08-21T15:02:43;3.67;;;2.33;;
13122;SDS011;6627;50.920;12.050;2022-08-21T15:05:12;4.93;;;2.50;;
13122;SDS011;6627;50.920;12.050;2022-08-21T15:07:40;4.30;;;2.63;;
13122;SDS011;6627;50.920;12.050;2022-08-21T15:10:07;5.83;;;2.83;;